createdAt,value
2023-02-14T00:00:25.104Z,100849.53
2023-02-14T00:05:30.260Z,100840.19
2023-02-14T00:10:35.233Z,100832.84
2023-02-14T00:15:42.924Z,100842.44
2023-02-14T00:20:47.893Z,100841.66
2023-02-14T00:25:53.052Z,100833.00
2023-02-14T00:31:04.129Z,100835.38
2023-02-14T00:36:10.506Z,100836.03
2023-02-14T00:41:19.347Z,100833.59
2023-02-14T00:46:27.741Z,100826.25
2023-02-14T00:51:33.938Z,100828.16
2023-02-14T00:56:40.620Z,100823.81
2023-02-14T01:01:50.398Z,100826.41
2023-02-14T01:06:55.346Z,100830.19
2023-02-14T01:12:00.295Z,100816.84
2023-02-14T01:17:07.854Z,100817.22
2023-02-14T01:22:12.880Z,100815.69
2023-02-14T01:27:17.726Z,100800.19
2023-02-14T01:32:27.625Z,100810.75
2023-02-14T01:37:33.295Z,100809.28
2023-02-14T01:42:39.416Z,100802.78
2023-02-14T01:47:49.619Z,100798.72
2023-02-14T01:52:58.330Z,100801.44
2023-02-14T01:58:07.435Z,100807.72
2023-02-14T02:03:16.693Z,100803.34
2023-02-14T02:08:21.754Z,100793.44
2023-02-14T02:13:26.932Z,100799.38
2023-02-14T02:18:51.383Z,100790.66
2023-02-14T02:24:18.121Z,100791.44
2023-02-14T02:29:48.725Z,100788.38
2023-02-14T02:35:18.627Z,100778.69
2023-02-14T02:40:31.773Z,100774.22
2023-02-14T02:46:01.502Z,100781.91
2023-02-14T02:51:29.555Z,100786.75
2023-02-14T02:56:49.985Z,100788.06
2023-02-14T03:02:03.086Z,100772.38
2023-02-14T03:07:23.160Z,100775.28
2023-02-14T03:12:51.890Z,100777.28
2023-02-14T03:18:04.957Z,100770.91
2023-02-14T03:23:21.721Z,100776.88
2023-02-14T03:28:35.961Z,100774.63
2023-02-14T03:33:48.914Z,100773.78
2023-02-14T03:39:01.737Z,100770.00
2023-02-14T03:44:11.536Z,100771.31
2023-02-14T03:49:20.978Z,100778.69
2023-02-14T03:54:30.238Z,100775.00
2023-02-14T03:59:35.322Z,100787.06
2023-02-14T04:04:44.217Z,100785.75
2023-02-14T04:09:52.542Z,100781.25
2023-02-14T04:14:57.630Z,100773.66
2023-02-14T04:20:02.750Z,100771.94
2023-02-14T04:25:10.774Z,100770.78
2023-02-14T04:30:18.237Z,100759.41
2023-02-14T04:35:24.789Z,100760.06
2023-02-14T04:40:32.650Z,100758.44
2023-02-14T04:45:37.694Z,100755.75
2023-02-14T04:50:43.070Z,100756.88
2023-02-14T04:55:51.794Z,100755.88
2023-02-14T05:00:56.755Z,100761.88
2023-02-14T05:06:01.807Z,100752.84
2023-02-14T05:11:09.587Z,100753.47
2023-02-14T05:16:15.800Z,100748.25
2023-02-14T05:21:21.198Z,100739.59
2023-02-14T05:26:31.187Z,100739.34
2023-02-14T05:31:37.813Z,100736.28
2023-02-14T05:36:42.898Z,100743.66
2023-02-14T05:41:50.756Z,100738.94
2023-02-14T05:46:55.815Z,100744.63
2023-02-14T05:52:00.772Z,100742.94
2023-02-14T05:57:08.348Z,100729.88
2023-02-14T06:02:14.341Z,100731.44
2023-02-14T06:07:19.670Z,100739.00
2023-02-14T06:12:27.502Z,100745.13
2023-02-14T06:17:33.457Z,100745.63
2023-02-14T06:22:39.303Z,100746.97
2023-02-14T06:28:11.210Z,100756.81
2023-02-14T06:33:53.166Z,100757.53
2023-02-14T06:39:02.355Z,100762.22
2023-02-14T06:44:10.576Z,100769.72
2023-02-14T06:49:17.219Z,100763.28
2023-02-14T06:54:22.453Z,100771.56
2023-02-14T06:59:30.486Z,100764.88
2023-02-14T07:04:37.112Z,100763.78
2023-02-14T07:09:42.385Z,100761.50
2023-02-14T07:14:49.956Z,100757.69
2023-02-14T07:19:55.028Z,100751.91
2023-02-14T07:25:00.009Z,100754.31
2023-02-14T07:30:09.175Z,100760.25
2023-02-14T07:35:15.347Z,100756.38
2023-02-14T07:40:25.363Z,100759.97
2023-02-14T07:45:33.589Z,100754.59
2023-02-14T07:50:38.529Z,100745.72
2023-02-14T07:55:43.857Z,100754.41
2023-02-14T08:00:51.722Z,100744.47
2023-02-14T08:05:59.810Z,100742.50
2023-02-14T08:11:05.041Z,100746.31
2023-02-14T08:16:12.803Z,100744.03
2023-02-14T08:21:17.943Z,100749.03
2023-02-14T08:26:23.016Z,100757.09
2023-02-14T08:31:36.119Z,100765.63
2023-02-14T08:36:43.846Z,100767.22
2023-02-14T08:41:51.134Z,100768.13
2023-02-14T08:46:58.866Z,100753.88
2023-02-14T08:52:04.094Z,100766.41
2023-02-14T08:57:10.543Z,100756.09
2023-02-14T09:02:19.149Z,100765.31
2023-02-14T09:07:32.181Z,100754.34
2023-02-14T09:12:37.337Z,100770.13
2023-02-14T09:17:51.256Z,100772.75
2023-02-14T09:22:59.263Z,100771.22
2023-02-14T09:28:05.766Z,100769.00
2023-02-14T09:33:17.893Z,100779.88
2023-02-14T09:38:22.899Z,100784.78
2023-02-14T09:43:37.068Z,100785.16
2023-02-14T09:48:49.386Z,100781.69
2023-02-14T09:54:03.058Z,100784.34
2023-02-14T09:59:18.879Z,100777.06
2023-02-14T10:04:35.227Z,100780.38
2023-02-14T10:09:58.244Z,100787.00
2023-02-14T10:15:07.663Z,100783.53
2023-02-14T10:20:27.688Z,100781.59
2023-02-14T10:26:00.471Z,100770.81
2023-02-14T10:31:22.103Z,100774.13
2023-02-14T10:36:47.132Z,100774.84
2023-02-14T10:42:07.362Z,100765.91
2023-02-14T10:47:37.250Z,100767.66
2023-02-14T10:52:59.162Z,100766.78
2023-02-14T10:58:12.494Z,100763.63
2023-02-14T11:03:18.137Z,100770.69
2023-02-14T11:08:29.810Z,100757.09
2023-02-14T11:13:37.781Z,100757.66
2023-02-14T11:18:43.899Z,100758.63
2023-02-14T11:23:54.128Z,100750.88
2023-02-14T11:29:02.354Z,100754.31
2023-02-14T11:34:29.112Z,100756.66
2023-02-14T11:39:38.343Z,100751.91
2023-02-14T11:45:01.595Z,100743.31
2023-02-14T11:50:13.606Z,100740.09
2023-02-14T11:55:33.932Z,100726.69
2023-02-14T12:00:43.997Z,100728.34
2023-02-14T12:05:57.417Z,100714.25
2023-02-14T12:11:21.000Z,100708.16
2023-02-14T12:16:43.022Z,100706.13
2023-02-14T12:21:56.361Z,100709.16
2023-02-14T12:27:23.087Z,100688.88
2023-02-14T12:32:30.685Z,100692.81
2023-02-14T12:38:02.775Z,100683.50
2023-02-14T12:43:43.290Z,100688.56
2023-02-14T12:49:08.485Z,100674.81
2023-02-14T12:54:37.298Z,100672.28
2023-02-14T12:59:50.411Z,100664.25
2023-02-14T13:05:05.126Z,100645.41
2023-02-14T13:10:22.370Z,100651.81
2023-02-14T13:15:40.173Z,100646.03
2023-02-14T13:20:53.123Z,100647.91
2023-02-14T13:26:03.470Z,100627.94
2023-02-14T13:31:13.227Z,100631.41
2023-02-14T13:36:22.708Z,100629.72
2023-02-14T13:41:33.550Z,100624.28
2023-02-14T13:47:06.506Z,100629.53
2023-02-14T13:52:13.039Z,100619.44
2023-02-14T13:57:37.232Z,100617.34
2023-02-14T14:02:53.430Z,100622.53
2023-02-14T14:08:38.115Z,100627.00
2023-02-14T14:13:59.334Z,100619.88
2023-02-14T14:19:14.454Z,100624.03
2023-02-14T14:24:25.919Z,100610.63
2023-02-14T14:29:34.741Z,100605.72
2023-02-14T14:34:55.675Z,100601.28
2023-02-14T14:40:02.943Z,100597.41
2023-02-14T14:45:13.742Z,100585.00
2023-02-14T14:50:25.415Z,100593.63
2023-02-14T14:55:34.085Z,100579.66
2023-02-14T15:00:42.648Z,100574.88
2023-02-14T15:05:53.931Z,100561.13
2023-02-14T15:11:03.093Z,100562.44
2023-02-14T15:16:08.821Z,100558.31
2023-02-14T15:21:18.390Z,100552.78
2023-02-14T15:26:33.184Z,100543.66
2023-02-14T15:31:42.486Z,100533.41
2023-02-14T15:36:54.320Z,100527.41
2023-02-14T15:41:59.470Z,100523.75
2023-02-14T15:47:08.608Z,100531.19
2023-02-14T15:52:17.505Z,100527.63
2023-02-14T15:57:27.402Z,100520.81
2023-02-14T16:02:37.894Z,100529.66
2023-02-14T16:07:59.503Z,100521.75
2023-02-14T16:13:06.721Z,100525.28
2023-02-14T16:18:21.948Z,100528.72
2023-02-14T16:23:33.311Z,100522.00
2023-02-14T16:28:41.090Z,100521.50
2023-02-14T16:33:47.540Z,100528.44
2023-02-14T16:38:56.416Z,100524.75
2023-02-14T16:44:01.396Z,100529.66
2023-02-14T16:49:06.692Z,100524.44
2023-02-14T16:54:18.356Z,100529.38
2023-02-14T16:59:23.513Z,100517.63
2023-02-14T17:04:29.356Z,100508.81
2023-02-14T17:09:43.061Z,100508.44
2023-02-14T17:14:52.604Z,100503.56
2023-02-14T17:19:57.528Z,100503.56
2023-02-14T17:25:05.424Z,100495.94
2023-02-14T17:30:14.407Z,100494.16
2023-02-14T17:35:21.417Z,100493.53
2023-02-14T17:40:30.577Z,100484.44
2023-02-14T17:45:35.618Z,100493.56
2023-02-14T17:50:40.657Z,100487.53
2023-02-14T17:55:48.346Z,100488.75
2023-02-14T18:00:53.335Z,100486.34
2023-02-14T18:06:02.769Z,100476.69
2023-02-14T18:11:11.934Z,100484.97
2023-02-14T18:16:19.128Z,100477.31
2023-02-14T18:21:24.729Z,100482.34
2023-02-14T18:26:33.788Z,100477.50
2023-02-14T18:31:42.904Z,100464.38
2023-02-14T18:36:48.365Z,100469.84
2023-02-14T18:42:00.070Z,100460.16
2023-02-14T18:47:12.611Z,100452.84
2023-02-14T18:52:18.165Z,100450.25
2023-02-14T18:57:25.976Z,100445.44
2023-02-14T19:02:32.827Z,100447.25
2023-02-14T19:07:38.675Z,100444.00
2023-02-14T19:12:46.498Z,100427.84
2023-02-14T19:17:53.097Z,100419.38
2023-02-14T19:22:58.203Z,100421.00
2023-02-14T19:28:06.720Z,100418.56
2023-02-14T19:33:14.489Z,100415.75
2023-02-14T19:38:20.301Z,100431.50
2023-02-14T19:43:29.112Z,100421.78
2023-02-14T19:48:37.276Z,100421.59
2023-02-14T19:53:45.408Z,100414.72
2023-02-14T19:58:54.854Z,100418.56
2023-02-14T20:04:01.853Z,100416.16
2023-02-14T20:09:12.943Z,100414.34
2023-02-14T20:14:24.369Z,100407.47
2023-02-14T20:19:35.410Z,100399.81
2023-02-14T20:24:45.093Z,100395.56
2023-02-14T20:29:55.550Z,100395.56
2023-02-14T20:35:11.310Z,100396.38
2023-02-14T20:40:18.201Z,100397.41
2023-02-14T20:45:26.590Z,100385.47
2023-02-14T20:50:36.056Z,100397.56
2023-02-14T20:55:44.962Z,100382.44
2023-02-14T21:00:54.982Z,100383.25
2023-02-14T21:06:03.024Z,100373.34
2023-02-14T21:11:10.996Z,100369.50
2023-02-14T21:16:20.926Z,100372.13
2023-02-14T21:21:32.482Z,100373.34
2023-02-14T21:26:37.975Z,100374.75
2023-02-14T21:31:47.403Z,100372.94
2023-02-14T21:36:56.386Z,100375.16
2023-02-14T21:42:02.180Z,100367.28
2023-02-14T21:47:10.027Z,100352.34
2023-02-14T21:52:15.253Z,100343.50
2023-02-14T21:57:20.172Z,100349.50
2023-02-14T22:02:27.836Z,100346.69
2023-02-14T22:07:34.841Z,100339.44
2023-02-14T22:12:42.435Z,100332.78
2023-02-14T22:17:51.025Z,100333.78
2023-02-14T22:22:55.992Z,100333.00
2023-02-14T22:28:01.372Z,100330.56
2023-02-14T22:33:08.981Z,100320.28
2023-02-14T22:38:14.964Z,100321.28
2023-02-14T22:43:22.179Z,100327.56
2023-02-14T22:48:34.796Z,100322.47
2023-02-14T22:53:40.189Z,100321.88
2023-02-14T22:58:50.623Z,100319.09
2023-02-14T23:04:03.711Z,100302.53
2023-02-14T23:09:10.936Z,100316.47
2023-02-14T23:14:29.451Z,100315.66
2023-02-14T23:19:50.793Z,100300.28
2023-02-14T23:24:57.361Z,100305.53
2023-02-14T23:30:04.040Z,100298.09
2023-02-14T23:35:15.063Z,100304.94
2023-02-14T23:40:20.482Z,100282.97
2023-02-14T23:45:38.883Z,100286.59
2023-02-14T23:50:46.798Z,100288.00
2023-02-14T23:55:51.831Z,100271.25
